Time;durP1;ratioP1;P1;durP2;ratioP2;P2;SDS_P1;SDS_P2;PMS_P1;PMS_P2;Temp;Humidity;BMP_temperature;BMP_pressure;BME280_temperature;BME280_humidity;BME280_pressure;Samples;Min_cycle;Max_cycle;Signal;HPM_P1;HPM_P2
2023/12/22 00:00:18;;;;;;;0.10;0.10;;;7.10;99.90;;;;;;4968083;28;20067;-70
2023/12/22 00:02:43;;;;;;;0.10;0.10;;;7.10;99.90;;;;;;4961005;28;20122;-70
2023/12/22 00:05:09;;;;;;;1.00;1.00;;;7.10;99.90;;;;;;4961537;28;20046;-70
2023/12/22 00:07:34;;;;;;;2.10;1.42;;;7.10;99.90;;;;;;4966099;28;20057;-70
2023/12/22 00:10:00;;;;;;;1.70;0.73;;;7.00;99.90;;;;;;4968927;28;20074;-70
2023/12/22 00:12:26;;;;;;;2.15;2.05;;;7.00;99.90;;;;;;4962482;28;20039;-70
2023/12/22 00:14:52;;;;;;;20.98;3.22;;;7.00;99.90;;;;;;4964603;28;20077;-70
2023/12/22 00:17:17;;;;;;;0.90;0.90;;;7.00;99.90;;;;;;4963531;28;20390;-70
2023/12/22 00:19:43;;;;;;;0.35;0.35;;;7.00;99.90;;;;;;4968004;28;20047;-70
2023/12/22 00:22:08;;;;;;;0.10;0.10;;;7.10;99.90;;;;;;4970859;28;20039;-70
2023/12/22 00:24:34;;;;;;;0.10;0.10;;;7.20;99.90;;;;;;4963353;28;20035;-70
2023/12/22 00:26:59;;;;;;;0.00;0.00;;;7.20;99.90;;;;;;4966004;28;20062;-70
2023/12/22 00:29:25;;;;;;;0.30;0.30;;;7.30;99.90;;;;;;4967483;28;20051;-70
2023/12/22 00:31:50;;;;;;;2.05;1.90;;;7.30;99.90;;;;;;4957241;28;20039;-70
2023/12/22 00:34:16;;;;;;;0.40;0.40;;;7.40;99.90;;;;;;4965665;28;20418;-70
2023/12/22 00:36:42;;;;;;;1.13;1.02;;;7.50;99.90;;;;;;4966740;28;20539;-70
2023/12/22 00:39:07;;;;;;;0.75;0.75;;;7.30;99.90;;;;;;4965534;28;20047;-70
2023/12/22 00:41:33;;;;;;;0.65;0.65;;;7.20;99.90;;;;;;4955741;28;20054;-71
2023/12/22 00:43:58;;;;;;;0.82;0.82;;;7.20;99.90;;;;;;4967089;28;20070;-71
2023/12/22 00:46:24;;;;;;;1.67;1.55;;;7.10;99.90;;;;;;4965260;28;20129;-71
2023/12/22 00:48:49;;;;;;;0.90;0.90;;;7.10;99.90;;;;;;4958495;28;20054;-71
2023/12/22 00:51:16;;;;;;;0.10;0.10;;;7.10;99.90;;;;;;4989325;28;20043;-71
2023/12/22 00:53:42;;;;;;;17.80;2.00;;;7.10;99.90;;;;;;4964474;28;20047;-71
2023/12/22 00:56:08;;;;;;;0.20;0.20;;;7.10;99.90;;;;;;4967921;28;20047;-70
2023/12/22 00:58:33;;;;;;;0.30;0.30;;;7.20;99.90;;;;;;4955558;28;20376;-71
2023/12/22 01:00:59;;;;;;;1.15;1.05;;;7.10;99.90;;;;;;4982268;28;20050;-71
2023/12/22 01:03:24;;;;;;;0.10;0.10;;;7.10;99.90;;;;;;4958904;28;20438;-71
2023/12/22 01:05:50;;;;;;;0.90;0.90;;;7.00;99.90;;;;;;4959414;28;20050;-71
2023/12/22 01:08:16;;;;;;;1.67;1.33;;;7.00;99.90;;;;;;4958156;28;20107;-70
2023/12/22 01:10:41;;;;;;;0.10;0.10;;;7.00;99.90;;;;;;4958656;28;20502;-71
2023/12/22 01:13:07;;;;;;;0.22;0.22;;;6.90;99.90;;;;;;4958410;28;20390;-71
2023/12/22 01:15:32;;;;;;;16.38;3.25;;;6.90;99.90;;;;;;4967616;28;20525;-71
2023/12/22 01:17:58;;;;;;;2.83;1.85;;;6.90;99.90;;;;;;4968139;28;20050;-71
2023/12/22 01:20:23;;;;;;;0.10;0.10;;;6.90;99.90;;;;;;4964406;28;20042;-71
2023/12/22 01:22:49;;;;;;;0.15;0.15;;;6.90;99.90;;;;;;4966961;28;20054;-71
2023/12/22 01:25:15;;;;;;;3.15;2.85;;;6.90;99.90;;;;;;4961513;28;20509;-71
2023/12/22 01:27:40;;;;;;;0.00;0.00;;;7.00;99.90;;;;;;4965970;28;20147;-71
2023/12/22 01:30:06;;;;;;;0.10;0.10;;;7.00;99.90;;;;;;4963673;28;20467;-70
2023/12/22 01:32:35;;;;;;;0.35;0.35;;;7.10;99.90;;;;;;4960986;28;20111;-71
2023/12/22 01:35:03;;;;;;;0.75;0.75;;;7.10;99.90;;;;;;4969065;28;20054;-71
2023/12/22 01:37:29;;;;;;;0.47;0.47;;;7.10;99.90;;;;;;4961747;28;20122;-71
2023/12/22 01:39:55;;;;;;;3.05;1.00;;;7.20;99.90;;;;;;4959318;28;20057;-70
2023/12/22 01:42:21;;;;;;;0.10;0.10;;;7.20;99.90;;;;;;4965780;28;20043;-70
2023/12/22 01:44:46;;;;;;;0.35;0.35;;;7.20;99.90;;;;;;4959840;28;20082;-70
2023/12/22 01:47:12;;;;;;;0.20;0.20;;;7.30;99.90;;;;;;4967622;28;20042;-71
2023/12/22 01:49:39;;;;;;;12.52;3.35;;;7.40;99.90;;;;;;4962957;28;20115;-71
2023/12/22 01:52:05;;;;;;;0.10;0.10;;;7.40;99.90;;;;;;4968895;28;20406;-70
2023/12/22 01:54:31;;;;;;;1.85;1.75;;;7.40;99.90;;;;;;4968089;28;20047;-70
2023/12/22 01:56:57;;;;;;;0.05;0.05;;;7.50;99.90;;;;;;4962469;28;20038;-71
2023/12/22 01:59:23;;;;;;;0.10;0.10;;;7.50;99.90;;;;;;4970614;28;20051;-71
2023/12/22 02:01:49;;;;;;;3.13;2.83;;;7.40;99.90;;;;;;4972104;28;20517;-70
2023/12/22 02:04:15;;;;;;;0.10;0.10;;;7.20;99.90;;;;;;4966978;28;20035;-70
2023/12/22 02:06:42;;;;;;;0.10;0.10;;;7.10;99.90;;;;;;4962122;28;20053;-70
2023/12/22 02:09:08;;;;;;;0.47;0.47;;;7.00;99.90;;;;;;4971477;28;20073;-70
2023/12/22 02:11:33;;;;;;;0.10;0.10;;;7.00;99.90;;;;;;4962247;28;20070;-70
2023/12/22 02:13:59;;;;;;;0.10;0.10;;;7.00;99.90;;;;;;4963515;28;20608;-70
2023/12/22 02:16:36;;;;;;;0.10;0.10;;;7.00;99.90;;;;;;4967106;28;20043;-70
2023/12/22 02:19:17;;;;;;;0.10;0.10;;;7.00;99.90;;;;;;4966063;28;20077;-70
2023/12/22 02:22:05;;;;;;;0.10;0.10;;;7.10;99.90;;;;;;4961635;28;20043;-70
2023/12/22 02:24:31;;;;;;;2.75;2.47;;;7.20;99.90;;;;;;4967732;28;20548;-70
2023/12/22 02:27:05;;;;;;;1.52;1.42;;;7.20;99.90;;;;;;4969998;28;20105;-70
2023/12/22 02:29:51;;;;;;;0.10;0.10;;;7.10;99.90;;;;;;4963870;28;20043;-70
2023/12/22 02:32:23;;;;;;;0.10;0.10;;;7.10;99.90;;;;;;4969060;28;20050;-70
2023/12/22 02:34:52;;;;;;;0.10;0.10;;;7.00;99.90;;;;;;4962112;28;20034;-70
2023/12/22 02:37:19;;;;;;;0.10;0.10;;;7.00;99.90;;;;;;4963778;28;20047;-70
2023/12/22 02:39:45;;;;;;;0.10;0.10;;;7.00;99.90;;;;;;5000000;28;20505;-70
2023/12/22 02:42:12;;;;;;;9.93;2.30;;;6.90;99.90;;;;;;4967579;28;20062;-70
2023/12/22 02:44:38;;;;;;;0.10;0.10;;;6.90;99.90;;;;;;4960889;28;20043;-70
2023/12/22 02:47:04;;;;;;;0.43;0.43;;;6.80;99.90;;;;;;4971051;28;20043;-70
2023/12/22 02:49:29;;;;;;;0.10;0.10;;;6.80;99.90;;;;;;4960305;28;20065;-70
2023/12/22 02:51:55;;;;;;;0.10;0.10;;;6.80;99.90;;;;;;4966778;28;20042;-70
2023/12/22 02:54:20;;;;;;;0.10;0.10;;;6.70;99.90;;;;;;4969135;28;20125;-70
2023/12/22 02:56:47;;;;;;;0.10;0.10;;;6.70;99.90;;;;;;4963106;28;20142;-70
2023/12/22 02:59:12;;;;;;;0.15;0.15;;;6.70;99.90;;;;;;4964135;28;20530;-70
2023/12/22 03:01:38;;;;;;;0.17;0.17;;;6.70;99.90;;;;;;4969923;28;20131;-70
2023/12/22 03:04:04;;;;;;;2.53;2.33;;;6.70;99.90;;;;;;4963871;28;20518;-70
2023/12/22 03:06:29;;;;;;;0.10;0.10;;;6.70;99.90;;;;;;4961552;28;20051;-70
2023/12/22 03:08:55;;;;;;;2.10;1.92;;;6.80;99.90;;;;;;4975922;28;20053;-70
2023/12/22 03:11:20;;;;;;;0.10;0.10;;;6.80;99.90;;;;;;4961303;28;20042;-70
2023/12/22 03:13:46;;;;;;;0.80;0.80;;;6.80;99.90;;;;;;4968014;28;20046;-70
2023/12/22 03:16:11;;;;;;;0.20;0.20;;;6.80;99.90;;;;;;4970860;28;20070;-70
2023/12/22 03:18:40;;;;;;;0.45;0.45;;;6.90;99.90;;;;;;4969548;28;20410;-70
2023/12/22 03:21:06;;;;;;;6.82;4.15;;;6.90;99.90;;;;;;4970176;28;20050;-70
2023/12/22 03:23:31;;;;;;;3.95;1.40;;;6.90;99.90;;;;;;4973475;28;20073;-70
2023/12/22 03:25:57;;;;;;;0.85;0.85;;;7.00;99.90;;;;;;4966871;28;20034;-70
2023/12/22 03:28:22;;;;;;;2.38;1.50;;;7.00;99.90;;;;;;4964621;28;20487;-70
2023/12/22 03:30:48;;;;;;;0.82;0.80;;;7.00;99.90;;;;;;4964418;28;20987;-70
2023/12/22 03:33:13;;;;;;;0.10;0.10;;;7.00;99.90;;;;;;4965322;28;20157;-70
2023/12/22 03:35:39;;;;;;;0.30;0.30;;;7.00;99.90;;;;;;4964347;28;20101;-70
2023/12/22 03:38:04;;;;;;;3.30;1.98;;;7.00;99.90;;;;;;4963768;28;20043;-70
2023/12/22 03:40:30;;;;;;;0.10;0.10;;;7.00;99.90;;;;;;4967431;28;20039;-70
2023/12/22 03:42:56;;;;;;;0.10;0.10;;;7.00;99.90;;;;;;4969131;28;20513;-70
2023/12/22 03:45:21;;;;;;;0.32;0.32;;;7.10;99.90;;;;;;4966776;28;20050;-70
2023/12/22 03:47:47;;;;;;;1.20;0.70;;;7.10;99.90;;;;;;4969001;28;20047;-69
2023/12/22 03:50:12;;;;;;;0.10;0.10;;;7.10;99.90;;;;;;4970547;28;20125;-70
2023/12/22 03:52:38;;;;;;;0.10;0.10;;;7.10;99.90;;;;;;4965548;28;20054;-70
2023/12/22 03:55:04;;;;;;;1.50;1.42;;;7.10;99.90;;;;;;4968272;28;20070;-70
2023/12/22 03:57:30;;;;;;;0.10;0.10;;;7.20;99.90;;;;;;4971217;28;20038;-70
2023/12/22 03:59:55;;;;;;;0.10;0.10;;;7.20;99.90;;;;;;4960896;28;20063;-70
2023/12/22 04:02:21;;;;;;;3.63;2.40;;;7.20;99.90;;;;;;4964491;28;20089;-70
2023/12/22 04:04:46;;;;;;;0.20;0.20;;;7.20;99.90;;;;;;4971132;28;20043;-70
2023/12/22 04:07:12;;;;;;;0.10;0.10;;;7.20;99.90;;;;;;4965432;28;20055;-70
2023/12/22 04:09:38;;;;;;;1.98;1.85;;;7.20;99.90;;;;;;4969380;28;20069;-70
2023/12/22 04:12:04;;;;;;;0.10;0.10;;;7.20;99.90;;;;;;4969693;28;20133;-70
2023/12/22 04:14:30;;;;;;;0.10;0.10;;;7.20;99.90;;;;;;4964447;28;20047;-70
2023/12/22 04:16:57;;;;;;;0.30;0.30;;;7.20;99.90;;;;;;4970008;28;20050;-70
2023/12/22 04:19:22;;;;;;;0.10;0.10;;;7.30;99.90;;;;;;4969354;28;20061;-70
2023/12/22 04:21:48;;;;;;;0.10;0.10;;;7.30;99.90;;;;;;4960526;28;20427;-70
2023/12/22 04:24:14;;;;;;;0.15;0.15;;;7.30;99.90;;;;;;4968818;28;20538;-70
2023/12/22 04:26:40;;;;;;;1.35;1.13;;;7.30;99.90;;;;;;4969440;28;20070;-70
2023/12/22 04:29:05;;;;;;;0.10;0.10;;;7.30;99.90;;;;;;4968630;28;20541;-70
2023/12/22 04:31:31;;;;;;;0.45;0.45;;;7.30;99.90;;;;;;4969729;28;20085;-71
2023/12/22 04:33:56;;;;;;;0.10;0.10;;;7.30;99.90;;;;;;4969591;28;20046;-70
2023/12/22 04:36:22;;;;;;;0.10;0.10;;;7.30;99.90;;;;;;4955805;28;20094;-70
2023/12/22 04:38:47;;;;;;;2.53;2.33;;;7.40;99.90;;;;;;4965150;28;20555;-70
2023/12/22 04:41:13;;;;;;;0.10;0.10;;;7.40;99.90;;;;;;4958571;28;20062;-70
2023/12/22 04:43:39;;;;;;;0.28;0.28;;;7.30;99.90;;;;;;4966850;28;20153;-70
2023/12/22 04:46:04;;;;;;;0.10;0.10;;;7.30;99.90;;;;;;4965435;28;20402;-70
2023/12/22 04:48:30;;;;;;;0.03;0.03;;;7.30;99.90;;;;;;4971859;28;20432;-70
2023/12/22 04:50:55;;;;;;;0.85;0.85;;;7.30;99.90;;;;;;4968530;28;20042;-70
2023/12/22 04:53:21;;;;;;;0.17;0.17;;;7.40;99.90;;;;;;4954822;28;20058;-70
2023/12/22 04:55:46;;;;;;;0.57;0.57;;;7.30;99.90;;;;;;4976090;28;20101;-70
2023/12/22 04:58:12;;;;;;;0.10;0.10;;;7.40;99.90;;;;;;4967210;28;20098;-70
2023/12/22 05:00:37;;;;;;;0.15;0.15;;;7.40;99.90;;;;;;4969566;28;20113;-70
2023/12/22 05:03:04;;;;;;;0.30;0.30;;;7.40;99.90;;;;;;4958949;28;20061;-70
2023/12/22 05:05:29;;;;;;;1.02;1.02;;;7.40;99.90;;;;;;4978071;28;20034;-70
2023/12/22 05:07:55;;;;;;;0.03;0.03;;;7.40;99.90;;;;;;4957677;28;20047;-70
2023/12/22 05:10:20;;;;;;;0.08;0.08;;;7.40;99.90;;;;;;4960805;28;20086;-71
2023/12/22 05:12:46;;;;;;;0.10;0.10;;;7.40;99.90;;;;;;4957566;28;20090;-70
2023/12/22 05:15:11;;;;;;;0.10;0.10;;;7.40;99.90;;;;;;4961401;28;20051;-70
2023/12/22 05:17:37;;;;;;;0.30;0.30;;;7.40;99.90;;;;;;4958714;28;20050;-71
2023/12/22 05:20:03;;;;;;;2.33;2.05;;;7.40;99.90;;;;;;4969509;28;20049;-70
2023/12/22 05:22:31;;;;;;;0.32;0.32;;;7.40;99.90;;;;;;4962853;28;20047;-70
2023/12/22 05:24:58;;;;;;;0.10;0.10;;;7.40;99.90;;;;;;4959293;28;20059;-70
2023/12/22 05:27:24;;;;;;;0.50;0.50;;;7.40;99.90;;;;;;4962371;28;20578;-70
2023/12/22 05:29:50;;;;;;;0.10;0.10;;;7.40;99.90;;;;;;4965089;28;20038;-70
2023/12/22 05:32:16;;;;;;;0.10;0.10;;;7.40;99.90;;;;;;4970324;28;20489;-70
2023/12/22 05:34:41;;;;;;;0.00;0.00;;;7.40;99.90;;;;;;4961773;28;20449;-71
2023/12/22 05:37:07;;;;;;;2.22;1.20;;;7.40;99.90;;;;;;4964556;28;20067;-70
2023/12/22 05:39:32;;;;;;;0.10;0.10;;;7.50;99.90;;;;;;4969917;28;20057;-71
2023/12/22 05:41:58;;;;;;;2.83;1.27;;;7.50;99.90;;;;;;4972951;28;20094;-70
2023/12/22 05:44:24;;;;;;;0.10;0.10;;;7.40;99.90;;;;;;4958047;28;20430;-71
2023/12/22 05:46:50;;;;;;;0.15;0.15;;;7.50;99.90;;;;;;4965928;28;20055;-70
2023/12/22 05:49:16;;;;;;;0.10;0.10;;;7.50;99.90;;;;;;4972659;28;20065;-70
2023/12/22 05:51:42;;;;;;;0.55;0.55;;;7.50;99.90;;;;;;4961526;28;20117;-70
2023/12/22 05:54:08;;;;;;;0.10;0.10;;;7.40;99.90;;;;;;4968072;28;20125;-70
2023/12/22 05:56:34;;;;;;;0.10;0.10;;;7.40;99.90;;;;;;4955979;28;20047;-71
2023/12/22 05:59:00;;;;;;;0.20;0.20;;;7.40;99.90;;;;;;4963831;28;20495;-70
2023/12/22 06:01:26;;;;;;;0.10;0.10;;;7.40;99.90;;;;;;4974987;28;20042;-70
2023/12/22 06:03:53;;;;;;;0.68;0.68;;;7.40;99.90;;;;;;4975025;28;20059;-71
2023/12/22 06:06:19;;;;;;;1.60;1.45;;;7.40;99.90;;;;;;4954862;28;20047;-70
2023/12/22 06:08:45;;;;;;;0.47;0.47;;;7.50;99.90;;;;;;4971437;28;20128;-70
2023/12/22 06:11:10;;;;;;;1.65;1.15;;;7.50;99.90;;;;;;4963348;28;20043;-70
2023/12/22 06:13:36;;;;;;;0.10;0.10;;;7.50;99.90;;;;;;4974896;28;20093;-70
2023/12/22 06:16:02;;;;;;;0.10;0.10;;;7.40;99.90;;;;;;4960555;28;20126;-70
2023/12/22 06:18:27;;;;;;;0.30;0.30;;;7.50;99.90;;;;;;4964740;28;20054;-70
2023/12/22 06:20:54;;;;;;;0.00;0.00;;;7.50;99.90;;;;;;4966016;28;20520;-70
2023/12/22 06:23:19;;;;;;;0.20;0.20;;;7.50;99.90;;;;;;4956872;28;20057;-70
2023/12/22 06:25:46;;;;;;;0.40;0.40;;;7.50;99.90;;;;;;4959107;28;20059;-70
2023/12/22 06:28:12;;;;;;;0.10;0.10;;;7.50;99.90;;;;;;4957600;28;20106;-70
2023/12/22 06:30:37;;;;;;;0.75;0.75;;;7.50;99.90;;;;;;4962541;28;20055;-70
2023/12/22 06:33:03;;;;;;;0.10;0.10;;;7.50;99.90;;;;;;4973918;28;20054;-71
2023/12/22 06:35:29;;;;;;;1.48;1.38;;;7.40;99.90;;;;;;4957510;28;20134;-70
2023/12/22 06:37:56;;;;;;;0.10;0.10;;;7.40;99.90;;;;;;4967153;28;20414;-70
2023/12/22 06:40:21;;;;;;;0.10;0.10;;;7.50;99.90;;;;;;4961781;28;20058;-70
2023/12/22 06:42:47;;;;;;;1.40;1.30;;;7.50;99.90;;;;;;4975973;28;20034;-71
2023/12/22 06:45:12;;;;;;;0.10;0.10;;;7.50;99.90;;;;;;4966439;28;20090;-70
2023/12/22 06:47:38;;;;;;;0.10;0.10;;;7.50;99.90;;;;;;4976102;28;20479;-70
2023/12/22 06:50:04;;;;;;;0.60;0.60;;;7.50;99.90;;;;;;4966242;28;20051;-70
2023/12/22 06:52:30;;;;;;;1.60;1.50;;;7.60;99.90;;;;;;4963810;28;20047;-70
2023/12/22 06:54:56;;;;;;;0.55;0.55;;;7.50;99.90;;;;;;4969314;28;20101;-70
2023/12/22 06:57:22;;;;;;;0.20;0.20;;;7.50;99.90;;;;;;4971433;28;20125;-70
2023/12/22 06:59:49;;;;;;;0.10;0.10;;;7.50;99.90;;;;;;4968513;28;20118;-70
2023/12/22 07:02:15;;;;;;;0.10;0.10;;;7.50;99.90;;;;;;4967826;28;20098;-69
2023/12/22 07:04:40;;;;;;;0.10;0.10;;;7.50;99.90;;;;;;4963589;28;20047;-70
2023/12/22 07:07:06;;;;;;;0.10;0.10;;;7.60;99.90;;;;;;4970290;28;20082;-70
2023/12/22 07:09:32;;;;;;;0.20;0.20;;;7.60;99.90;;;;;;4963876;28;20046;-70
2023/12/22 07:11:58;;;;;;;0.10;0.10;;;7.60;99.90;;;;;;4962552;28;20083;-70
2023/12/22 07:14:24;;;;;;;0.10;0.10;;;7.60;99.90;;;;;;4975529;28;20097;-69
2023/12/22 07:16:50;;;;;;;0.00;0.00;;;7.60;99.90;;;;;;4969213;28;20050;-70
2023/12/22 07:19:15;;;;;;;0.10;0.10;;;7.70;99.90;;;;;;4963839;28;20079;-69
2023/12/22 07:21:41;;;;;;;2.55;1.55;;;7.70;99.90;;;;;;4975235;28;20042;-69
2023/12/22 07:24:07;;;;;;;0.10;0.10;;;7.70;99.90;;;;;;4963237;28;20043;-69
2023/12/22 07:26:32;;;;;;;0.10;0.10;;;7.70;99.90;;;;;;4972079;28;20031;-70
2023/12/22 07:29:01;;;;;;;0.10;0.10;;;7.70;99.90;;;;;;4970558;28;20063;-70
2023/12/22 07:31:26;;;;;;;1.45;1.35;;;7.70;99.90;;;;;;4970819;28;20038;-70
2023/12/22 07:33:52;;;;;;;0.10;0.10;;;7.70;99.90;;;;;;4957136;28;20043;-70
2023/12/22 07:36:18;;;;;;;0.10;0.10;;;7.70;99.90;;;;;;4968898;28;20160;-70
2023/12/22 07:38:44;;;;;;;1.27;1.02;;;7.70;99.90;;;;;;4969087;28;20063;-70
2023/12/22 07:41:10;;;;;;;0.10;0.10;;;7.70;99.90;;;;;;4973322;28;20428;-69
2023/12/22 07:43:36;;;;;;;0.10;0.10;;;7.80;99.90;;;;;;4964094;28;20585;-70
2023/12/22 07:46:02;;;;;;;0.10;0.10;;;7.70;99.90;;;;;;4958455;28;20177;-70
2023/12/22 07:48:27;;;;;;;2.83;2.60;;;7.70;99.90;;;;;;4969796;28;20043;-70
2023/12/22 07:50:53;;;;;;;0.10;0.10;;;7.70;99.90;;;;;;4982312;28;20046;-70
2023/12/22 07:53:19;;;;;;;0.10;0.10;;;7.70;99.90;;;;;;4961311;28;20051;-70
2023/12/22 07:55:46;;;;;;;0.45;0.45;;;7.70;99.90;;;;;;4968730;28;20039;-70
2023/12/22 07:58:12;;;;;;;0.10;0.10;;;7.60;99.90;;;;;;4968015;28;20053;-70
2023/12/22 08:00:38;;;;;;;0.15;0.15;;;7.60;99.90;;;;;;4961308;28;20035;-70
2023/12/22 08:03:04;;;;;;;0.10;0.10;;;7.60;99.90;;;;;;4969140;28;20049;-70
2023/12/22 08:05:33;;;;;;;1.33;1.23;;;7.60;99.90;;;;;;4957564;28;20097;-71
2023/12/22 08:07:59;;;;;;;0.10;0.10;;;7.50;99.90;;;;;;4965066;28;20055;-71
2023/12/22 08:10:24;;;;;;;0.10;0.10;;;7.40;99.90;;;;;;4957752;28;20118;-70
2023/12/22 08:12:50;;;;;;;0.10;0.10;;;7.30;99.90;;;;;;4963453;28;20058;-70
2023/12/22 08:15:15;;;;;;;0.88;0.82;;;7.20;99.90;;;;;;4980881;28;20048;-71
2023/12/22 08:17:48;;;;;;;0.10;0.10;;;7.20;99.90;;;;;;4966222;28;20499;-71
2023/12/22 08:20:18;;;;;;;0.10;0.10;;;7.20;99.90;;;;;;4957408;28;20416;-71
2023/12/22 08:22:45;;;;;;;0.20;0.20;;;7.20;99.90;;;;;;4956599;28;20054;-71
2023/12/22 08:25:11;;;;;;;0.10;0.10;;;7.20;99.90;;;;;;4966754;28;20058;-71
2023/12/22 08:27:36;;;;;;;0.10;0.10;;;7.20;99.90;;;;;;4960484;28;20043;-71
2023/12/22 08:30:03;;;;;;;0.55;0.55;;;7.20;99.90;;;;;;4967376;28;20146;-70
2023/12/22 08:32:29;;;;;;;0.10;0.10;;;7.20;99.90;;;;;;4963036;28;20095;-71
2023/12/22 08:34:54;;;;;;;0.10;0.10;;;7.20;99.90;;;;;;4960961;28;20487;-71
2023/12/22 08:37:20;;;;;;;0.00;0.00;;;7.20;99.90;;;;;;4964069;28;20120;-70
2023/12/22 08:39:45;;;;;;;1.00;0.47;;;7.20;99.90;;;;;;4971141;28;20058;-70
2023/12/22 08:42:12;;;;;;;0.77;0.77;;;7.20;99.90;;;;;;4975217;28;20047;-71
2023/12/22 08:44:37;;;;;;;0.10;0.10;;;7.30;99.90;;;;;;4964485;28;20039;-70
2023/12/22 08:47:03;;;;;;;0.30;0.30;;;7.30;99.90;;;;;;4968672;28;20049;-70
2023/12/22 08:49:28;;;;;;;0.00;0.00;;;7.30;99.90;;;;;;4967269;28;20069;-71
2023/12/22 08:51:54;;;;;;;0.22;0.22;;;7.30;99.90;;;;;;4955151;28;20054;-70
2023/12/22 08:54:20;;;;;;;0.28;0.28;;;7.30;99.90;;;;;;4963857;28;20046;-70
2023/12/22 08:56:45;;;;;;;0.10;0.10;;;7.30;99.90;;;;;;4957431;28;20050;-70
2023/12/22 08:59:11;;;;;;;0.30;0.30;;;7.40;99.90;;;;;;4965644;28;20041;-71
2023/12/22 09:01:36;;;;;;;0.00;0.00;;;7.40;99.90;;;;;;4956248;28;20055;-70
2023/12/22 09:04:02;;;;;;;0.10;0.10;;;7.40;99.90;;;;;;4962572;28;20134;-70
2023/12/22 09:06:27;;;;;;;2.05;1.38;;;7.40;99.90;;;;;;4964635;28;20110;-71
2023/12/22 09:08:53;;;;;;;0.68;0.47;;;7.40;99.90;;;;;;4972814;28;20051;-70
2023/12/22 09:11:21;;;;;;;0.10;0.10;;;7.50;99.90;;;;;;4964805;28;20035;-71
2023/12/22 09:13:47;;;;;;;0.10;0.10;;;7.50;99.90;;;;;;4964867;28;20089;-71
2023/12/22 09:16:15;;;;;;;0.10;0.10;;;7.50;99.90;;;;;;4963175;28;20065;-71
2023/12/22 09:18:42;;;;;;;0.10;0.10;;;7.60;99.90;;;;;;4964963;28;20426;-71
2023/12/22 09:21:07;;;;;;;0.00;0.00;;;7.60;99.90;;;;;;4959512;28;20043;-70
2023/12/22 09:23:33;;;;;;;0.10;0.10;;;7.60;99.90;;;;;;4955798;28;20164;-70
2023/12/22 09:25:59;;;;;;;0.10;0.10;;;7.60;99.90;;;;;;4964285;28;20447;-70
2023/12/22 09:28:25;;;;;;;0.10;0.10;;;7.70;99.90;;;;;;4980687;28;20054;-70
2023/12/22 09:30:51;;;;;;;0.10;0.10;;;7.70;99.90;;;;;;4958757;28;20505;-70
2023/12/22 09:33:16;;;;;;;0.10;0.10;;;7.80;99.90;;;;;;4965792;28;20130;-70
2023/12/22 09:35:42;;;;;;;0.10;0.10;;;7.80;99.90;;;;;;4965310;28;20049;-71
2023/12/22 09:38:09;;;;;;;1.33;1.23;;;7.80;99.90;;;;;;4958192;28;20055;-71
2023/12/22 09:40:36;;;;;;;0.10;0.10;;;7.80;99.90;;;;;;4968509;28;20089;-71
2023/12/22 09:43:04;;;;;;;7.13;1.45;;;7.90;99.90;;;;;;4980990;28;20386;-70
2023/12/22 09:45:32;;;;;;;0.10;0.10;;;7.80;99.90;;;;;;4967190;28;20054;-71
2023/12/22 09:48:00;;;;;;;0.43;0.43;;;7.90;99.90;;;;;;4960720;28;20047;-70
2023/12/22 09:50:30;;;;;;;0.63;0.63;;;7.90;99.90;;;;;;4969256;28;20047;-71
2023/12/22 09:52:56;;;;;;;0.00;0.00;;;7.90;99.90;;;;;;4955666;28;20058;-70
2023/12/22 09:55:23;;;;;;;0.10;0.10;;;8.00;99.90;;;;;;4960413;28;20066;-70
2023/12/22 09:57:50;;;;;;;0.00;0.00;;;8.00;99.90;;;;;;4981321;28;20055;-71
2023/12/22 10:00:17;;;;;;;2.40;0.85;;;8.00;99.90;;;;;;4961268;28;20054;-70
2023/12/22 10:02:45;;;;;;;0.10;0.10;;;8.10;99.90;;;;;;4957916;28;20047;-70
2023/12/22 10:05:12;;;;;;;0.52;0.52;;;8.10;99.90;;;;;;4960453;28;20047;-71
2023/12/22 10:07:39;;;;;;;0.10;0.10;;;8.10;99.90;;;;;;4976258;28;20125;-71
2023/12/22 10:10:06;;;;;;;0.20;0.20;;;8.10;99.90;;;;;;4973845;28;20050;-70
2023/12/22 10:12:34;;;;;;;13.57;2.13;;;8.10;99.90;;;;;;4965590;28;20047;-71
2023/12/22 10:15:00;;;;;;;0.10;0.10;;;8.20;99.90;;;;;;4975166;28;20082;-71
2023/12/22 10:17:27;;;;;;;0.00;0.00;;;8.20;99.90;;;;;;4973541;28;20035;-71
2023/12/22 10:19:52;;;;;;;0.10;0.10;;;8.20;99.90;;;;;;4964047;28;20043;-70
2023/12/22 10:22:18;;;;;;;0.17;0.17;;;8.20;99.90;;;;;;4973375;28;20030;-70
2023/12/22 10:24:47;;;;;;;0.00;0.00;;;8.20;99.90;;;;;;4970507;28;20046;-70
2023/12/22 10:27:14;;;;;;;0.00;0.00;;;8.20;99.90;;;;;;4961990;28;20051;-70
2023/12/22 10:29:40;;;;;;;0.20;0.20;;;8.30;99.90;;;;;;4967507;28;20039;-70
2023/12/22 10:32:07;;;;;;;0.00;0.00;;;8.30;99.90;;;;;;4964007;28;20047;-70
2023/12/22 10:34:33;;;;;;;0.03;0.03;;;8.30;99.90;;;;;;4970946;28;20244;-71
2023/12/22 10:36:59;;;;;;;0.10;0.10;;;8.30;99.90;;;;;;4959472;28;20138;-71
2023/12/22 10:39:29;;;;;;;0.10;0.10;;;8.30;99.90;;;;;;4962017;28;20081;-71
2023/12/22 10:41:56;;;;;;;0.08;0.08;;;8.30;99.90;;;;;;4979183;28;20792;-70
2023/12/22 10:44:28;;;;;;;0.03;0.03;;;8.30;99.90;;;;;;4972646;28;20062;-71
2023/12/22 10:46:54;;;;;;;0.00;0.00;;;8.30;99.90;;;;;;4970448;28;20510;-70
2023/12/22 10:49:21;;;;;;;1.20;1.02;;;8.30;99.90;;;;;;4960607;28;20075;-70
2023/12/22 10:51:46;;;;;;;0.10;0.10;;;8.30;99.90;;;;;;4967520;28;20046;-71
2023/12/22 10:54:12;;;;;;;4.45;1.35;;;8.30;99.90;;;;;;4973154;28;20051;-70
2023/12/22 10:56:39;;;;;;;2.08;1.20;;;8.30;99.90;;;;;;4971603;28;20034;-70
2023/12/22 10:59:06;;;;;;;0.10;0.10;;;8.40;99.90;;;;;;4962135;28;20051;-70
2023/12/22 11:01:33;;;;;;;0.10;0.10;;;8.40;99.90;;;;;;4965712;28;20482;-70
2023/12/22 11:04:02;;;;;;;0.00;0.00;;;8.50;99.90;;;;;;4961869;28;20050;-70
2023/12/22 11:06:33;;;;;;;0.80;0.80;;;8.40;99.90;;;;;;4967574;28;21131;-70
2023/12/22 11:09:02;;;;;;;7.90;2.30;;;8.40;99.90;;;;;;4960318;28;20133;-71
2023/12/22 11:11:32;;;;;;;0.10;0.10;;;8.50;99.90;;;;;;4970557;28;20042;-71
2023/12/22 11:14:00;;;;;;;0.73;0.73;;;8.40;99.90;;;;;;4957389;28;20414;-70
2023/12/22 11:16:28;;;;;;;0.73;0.63;;;8.50;99.90;;;;;;4966299;28;20038;-71
2023/12/22 11:18:55;;;;;;;0.28;0.28;;;8.50;99.90;;;;;;4971682;28;20490;-70
2023/12/22 11:21:24;;;;;;;0.10;0.10;;;8.50;99.90;;;;;;4960530;28;20043;-70
2023/12/22 11:23:53;;;;;;;6.50;2.55;;;8.50;99.90;;;;;;4966491;28;20047;-70
2023/12/22 11:26:20;;;;;;;0.60;0.57;;;8.50;99.90;;;;;;4966702;28;20039;-71
2023/12/22 11:28:47;;;;;;;0.10;0.10;;;8.50;99.90;;;;;;4965856;28;20554;-70
2023/12/22 11:31:13;;;;;;;0.30;0.30;;;8.50;99.90;;;;;;4971221;28;20053;-70
2023/12/22 11:33:49;;;;;;;0.10;0.10;;;8.50;99.90;;;;;;4970524;28;20402;-71
2023/12/22 11:36:16;;;;;;;0.10;0.10;;;8.50;99.90;;;;;;4963769;28;20036;-71
2023/12/22 11:38:43;;;;;;;0.10;0.10;;;8.50;99.90;;;;;;4956917;28;20471;-71
2023/12/22 11:41:14;;;;;;;0.00;0.00;;;8.50;99.90;;;;;;4958134;28;20051;-71
2023/12/22 11:43:40;;;;;;;0.88;0.55;;;8.50;99.90;;;;;;4986061;28;20121;-71
2023/12/22 11:46:06;;;;;;;0.10;0.10;;;8.50;99.90;;;;;;4968306;28;20067;-71
2023/12/22 11:48:32;;;;;;;1.10;1.10;;;8.50;99.90;;;;;;4968061;28;20057;-71
2023/12/22 11:50:58;;;;;;;3.35;1.33;;;8.50;99.90;;;;;;4965142;28;20042;-71
2023/12/22 11:53:29;;;;;;;0.10;0.10;;;8.50;99.90;;;;;;4957246;28;20140;-71
2023/12/22 11:56:07;;;;;;;0.05;0.05;;;8.50;99.90;;;;;;4965001;28;20386;-71
2023/12/22 11:58:40;;;;;;;1.30;1.20;;;8.50;99.90;;;;;;4962176;28;20398;-71
2023/12/22 12:01:11;;;;;;;0.10;0.10;;;8.50;99.90;;;;;;4962257;28;20061;-71
2023/12/22 12:03:40;;;;;;;0.10;0.10;;;8.40;99.90;;;;;;4976134;28;20108;-71
2023/12/22 12:06:15;;;;;;;0.00;0.00;;;8.50;99.90;;;;;;4970166;28;20055;-71
2023/12/22 12:08:41;;;;;;;0.10;0.10;;;8.50;99.90;;;;;;4966508;28;20054;-71
2023/12/22 12:11:07;;;;;;;0.10;0.10;;;8.50;99.90;;;;;;4969463;28;20062;-71
2023/12/22 12:13:33;;;;;;;0.10;0.10;;;8.50;99.90;;;;;;4975505;28;20043;-71
2023/12/22 12:16:01;;;;;;;0.57;0.32;;;8.50;99.90;;;;;;4965679;28;20510;-71
2023/12/22 12:18:31;;;;;;;0.10;0.10;;;8.50;99.90;;;;;;4964635;28;20051;-71
2023/12/22 12:20:57;;;;;;;0.00;0.00;;;8.50;99.90;;;;;;4959794;28;20498;-71
2023/12/22 12:23:27;;;;;;;0.68;0.68;;;8.40;99.90;;;;;;4983043;28;20037;-71
2023/12/22 12:25:56;;;;;;;0.77;0.77;;;8.40;99.90;;;;;;4963884;28;20082;-71
2023/12/22 12:28:45;;;;;;;0.10;0.10;;;8.40;99.90;;;;;;4957664;28;20566;-72
2023/12/22 12:31:11;;;;;;;0.20;0.20;;;8.30;99.90;;;;;;4962980;28;20395;-72
2023/12/22 12:33:37;;;;;;;0.77;0.63;;;8.30;99.90;;;;;;4967629;28;20053;-72
2023/12/22 12:36:04;;;;;;;0.10;0.10;;;8.30;99.90;;;;;;4955143;28;20039;-71
2023/12/22 12:39:01;;;;;;;0.30;0.30;;;8.30;99.90;;;;;;4962260;28;20086;-72
2023/12/22 12:41:31;;;;;;;0.10;0.10;;;8.30;99.90;;;;;;4954966;28;20082;-71
2023/12/22 12:43:59;;;;;;;0.25;0.25;;;8.30;99.90;;;;;;4976456;28;20038;-71
2023/12/22 12:46:39;;;;;;;0.10;0.10;;;8.30;99.90;;;;;;4970813;28;20125;-72
2023/12/22 12:49:08;;;;;;;0.10;0.10;;;8.30;99.90;;;;;;4962716;28;20043;-72
2023/12/22 12:51:38;;;;;;;0.10;0.10;;;8.30;99.90;;;;;;4963275;28;20034;-71
2023/12/22 12:54:05;;;;;;;0.10;0.10;;;8.30;99.90;;;;;;4961955;28;20050;-72